• Join FlightAware (Why Join?)
  • Login
  • US Flag 
01:37AM EDT


 

Airport Tracker/Info


-or-


 

Live Flight TrackerFlight Track Log ✈ N2086E ✈ 20-Aug-2014 ✈ KSRQ - KPIE

Flight Track Log - Related Links

Times and Time Zones

All times are in EDT time to prevent confusion due to time zone crossing. See the N2086E flight status page for this flight to view local times or setup timezone preferences in your user account.

Time Position Orientation Groundspeed Altitude Reporting Facility
EDT Latitude Longitude Course Direction KTS MPH feet Rate Location/Type
09:56AM 27.4167 -82.5667 333° Northwest 79 91 1,200  Level Tampa TRACON
09:57AM 27.4333 -82.5833 318° Northwest 80 92 1,700 540 Climbing Tampa TRACON
09:58AM 27.4500 -82.5833 360° North 74 85 2,300 600 Climbing Tampa TRACON
09:59AM 27.4667 -82.5833 360° North 76 87 2,900 600 Climbing Tampa TRACON
10:00AM 27.5000 -82.5833 360° North 78 90 3,400 480 Climbing Tampa TRACON
10:01AM 27.5167 -82.5833 360° North 84 97 4,000 300 Climbing Tampa TRACON
10:02AM 27.5333 -82.6000 318° Northwest 97 112 4,100  Climbing Tampa TRACON
10:03AM 27.5500 -82.6167 318° Northwest 99 114 4,000 -120 Descending Tampa TRACON
10:04AM 27.5708 -82.6339 324° Northwest 92 106 3,900 -360 Descending Miami Center
10:05AM 27.5917 -82.6561 317° Northwest 97 112 3,400 -480 Descending Miami Center
10:06AM 27.6108 -82.6803 312° West 96 110 3,000 -240 Descending Miami Center
10:07AM 27.6247 -82.7000 308° West 88 101 3,000  Level Miami Center
10:08AM 27.6469 -82.7108 337° Northwest 87 100 3,000  Level Miami Center
10:09AM 27.6683 -82.7231 333° Northwest 87 100 3,100  Climbing Miami Center
10:10AM 27.6917 -82.7358 334° Northwest 87 100 3,100  Level Miami Center
10:11AM 27.7167 -82.7500 333° Northwest 88 101 3,100  Level Tampa TRACON
10:12AM 27.7333 -82.7500 360° North 89 102 3,100  Level Tampa TRACON
10:13AM 27.7667 -82.7667 336° Northwest 87 100 3,100  Level Tampa TRACON
10:14AM 27.8000 -82.7667 360° North 90 104 3,100  Level Tampa TRACON
10:15AM 27.8167 -82.7667 360° North 88 101 3,100 -60 Level Tampa TRACON
10:16AM 27.8333 -82.7667 360° North 84 97 3,000 -60 Descending Tampa TRACON
10:17AM 27.8667 -82.7833 336° Northwest 83 96 3,000  Level Tampa TRACON
10:18AM 27.8833 -82.7833 360° North 86 99 3,100  Climbing Tampa TRACON
10:19AM 27.9167 -82.7833 360° North 91 105 3,100  Level Tampa TRACON
10:20AM 27.9333 -82.7833 360° North 87 100 3,100  Level Tampa TRACON
10:21AM 27.9500 -82.8000 319° Northwest 90 104 3,100  Level Tampa TRACON
10:22AM 27.9833 -82.8000 360° North 87 100 3,100 -240 Level Tampa TRACON
10:23AM 28.0000 -82.8000 360° North 89 102 2,700 -240 Descending Tampa TRACON
10:24AM 28.0333 -82.8000 360° North 80 92 2,700 -240 Level Tampa TRACON
10:25AM 28.0500 -82.7833 41° Northeast 90 104 2,300 -480 Descending Tampa TRACON
10:26AM 28.0667 -82.7500 60° Northeast 94 108 1,700 -300 Descending Tampa TRACON
10:27AM 28.0667 -82.7167 90° East 93 107 1,700  Level Tampa TRACON
10:28AM 28.0500 -82.7000 139° Southeast 96 110 1,800  Climbing Tampa TRACON
10:29AM 28.0333 -82.7000 180° South 93 107 1,700 -120 Descending Tampa TRACON
10:30AM 28.0000 -82.7000 180° South 88 101 1,600 -240 Descending Tampa TRACON
10:31AM 27.9833 -82.7000 180° South 88 101 1,300 -480 Descending Tampa TRACON
10:32AM 27.9500 -82.7000 180° South 86 99 800 -540 Descending Tampa TRACON
10:33AM 27.9333 -82.7000 180° South 80 92 300 -540 Descending Tampa TRACON